Accueil
METAR-TAF:

METAR-TAF

Aéroports :

Koumac, Nouvelle-Calédonie

Aérodrome de Koumac

latitude: 20-34S, longitude: 164-17E, altitude: 23 m

METAR: absent

Heure: 11:53 (00:53 UTC)

Prévision

Le bulletin a été fait il y a 1 heure et 53 minutes, à 23:00 UTC
Prévision valable du 24 à 00 UTC au 24 à 24 UTC
Vent 8 kt de nord/nord-est
Visibilité 10 km ou plus
Nuages épars à une hauteur de 3000 ft
Nuages fragmentés à une hauteur de 10000 ft
Temporairement
du 24 à 00 UTC au 24 à 24 UTC
Visibilité: 4000 m
Quelques nuages à une hauteur de 2000 ft, Cumulonimbus.
averses de pluie
Probabilité 40% :
Temporairement
du 24 à 06 UTC au 24 à 18 UTC
Visibilité: 2000 m
Nuages fragmentés à une hauteur de 1400 ft
Nuages épars à une hauteur de 1800 ft, Cumulonimbus.
orage, pluie

TAF: NWWK 232300Z 2400/2424 02008KT 9999 SCT030 BKN100 TEMPO 2400/2424 4000 SHRA FEW020CB PROB40 TEMPO 2406/2418 2000 TSRA BKN014 SCT018CB

Observations et prévisions météorologiques de plus de 4000 aéroports (messages METAR et TAF).

Les stations disponibles sont représentées par des disques jaunes et rouges sur la carte.

Passer la souris dessus pour voir le nom de la station.

Cliquer dessus pour voir les observations et prévisions météorologiques.

Pour changer de carte: cliquez sur les boutons verts avec une croix noire pour zoomer, sur le bouton vert avec un tiret pour effectuer un zoom arrière, ou sur les flèches vertes pour les cartes adjacentes.


METAR-TAF: